createdAt,value
2022-10-11T00:01:20.530Z,58.69
2022-10-11T00:03:47.125Z,58.84
2022-10-11T00:06:13.645Z,58.70
2022-10-11T00:08:40.214Z,58.34
2022-10-11T00:11:07.914Z,58.57
2022-10-11T00:13:35.257Z,58.63
2022-10-11T00:16:01.932Z,58.68
2022-10-11T00:18:28.663Z,58.68
2022-10-11T00:21:07.755Z,58.32
2022-10-11T00:23:34.669Z,58.76
2022-10-11T00:26:03.567Z,58.73
2022-10-11T00:28:31.073Z,58.56
2022-10-11T00:30:57.955Z,58.86
2022-10-11T00:33:24.591Z,58.60
2022-10-11T00:35:51.154Z,58.73
2022-10-11T00:38:18.158Z,58.79
2022-10-11T00:40:45.184Z,59.00
2022-10-11T00:43:23.672Z,58.85
2022-10-11T00:45:56.178Z,58.79
2022-10-11T00:48:30.635Z,58.98
2022-10-11T00:50:58.976Z,59.15
2022-10-11T00:53:26.241Z,58.96
2022-10-11T00:56:01.504Z,58.95
2022-10-11T00:58:28.598Z,58.84
2022-10-11T01:00:55.198Z,59.11
2022-10-11T01:03:24.672Z,59.06
2022-10-11T01:05:51.355Z,59.02
2022-10-11T01:08:18.522Z,59.20
2022-10-11T01:10:45.163Z,59.14
2022-10-11T01:13:24.983Z,59.41
2022-10-11T01:16:38.028Z,59.13
2022-10-11T01:19:25.567Z,59.44
2022-10-11T01:22:12.341Z,59.33
2022-10-11T01:25:16.267Z,59.33
2022-10-11T01:27:53.607Z,59.55
2022-10-11T01:30:27.181Z,59.49
2022-10-11T01:32:56.739Z,59.36
2022-10-11T01:35:25.971Z,59.71
2022-10-11T01:38:18.681Z,59.95
2022-10-11T01:41:09.622Z,59.54
2022-10-11T01:43:38.325Z,59.50
2022-10-11T01:46:06.063Z,59.78
2022-10-11T01:48:32.922Z,59.84
2022-10-11T01:51:02.230Z,59.82
2022-10-11T01:53:44.210Z,59.84
2022-10-11T01:56:29.255Z,59.64
2022-10-11T01:58:58.859Z,59.69
2022-10-11T02:01:54.924Z,59.84
2022-10-11T02:04:51.840Z,59.75
2022-10-11T02:07:44.208Z,59.85
2022-10-11T02:10:21.747Z,59.89
2022-10-11T02:13:18.653Z,59.90
2022-10-11T02:15:46.402Z,59.78
2022-10-11T02:18:19.285Z,59.63
2022-10-11T02:20:47.440Z,59.64
2022-10-11T02:23:17.891Z,59.97
2022-10-11T02:25:45.619Z,59.69
2022-10-11T02:28:16.927Z,59.94
2022-10-11T02:30:45.380Z,59.91
2022-10-11T02:33:13.881Z,60.04
2022-10-11T02:35:44.577Z,60.24
2022-10-11T02:38:34.395Z,60.28
2022-10-11T02:41:07.433Z,60.10
2022-10-11T02:43:37.867Z,60.10
2022-10-11T02:46:05.668Z,60.18
2022-10-11T02:48:32.988Z,60.16
2022-10-11T02:50:59.598Z,60.02
2022-10-11T02:53:27.010Z,60.08
2022-10-11T02:55:54.316Z,60.23
2022-10-11T02:58:21.648Z,59.90
2022-10-11T03:00:48.826Z,59.83
2022-10-11T03:03:15.663Z,59.74
2022-10-11T03:05:43.554Z,60.01
2022-10-11T03:08:14.381Z,59.79
2022-10-11T03:10:41.406Z,60.06
2022-10-11T03:13:08.309Z,59.94
2022-10-11T03:15:35.255Z,59.89
2022-10-11T03:18:03.273Z,59.82
2022-10-11T03:20:29.799Z,59.80
2022-10-11T03:22:56.425Z,60.04
2022-10-11T03:25:22.964Z,60.12
2022-10-11T03:27:49.513Z,60.12
2022-10-11T03:30:18.303Z,60.21
2022-10-11T03:32:45.126Z,60.34
2022-10-11T03:35:11.627Z,60.15
2022-10-11T03:37:38.158Z,60.30
2022-10-11T03:40:06.379Z,60.06
2022-10-11T03:42:33.088Z,60.27
2022-10-11T03:45:01.721Z,60.41
2022-10-11T03:47:28.256Z,60.59
2022-10-11T03:49:55.456Z,60.45
2022-10-11T03:52:21.969Z,60.42
2022-10-11T03:54:48.555Z,60.85
2022-10-11T03:57:15.163Z,60.81
2022-10-11T03:59:41.748Z,60.69
2022-10-11T04:02:08.366Z,60.52
2022-10-11T04:04:35.199Z,60.65
2022-10-11T04:07:01.725Z,60.71
2022-10-11T04:09:28.643Z,60.50
2022-10-11T04:11:55.136Z,60.47
2022-10-11T04:14:21.632Z,60.36
2022-10-11T04:16:48.264Z,60.47
2022-10-11T04:19:14.842Z,60.44
2022-10-11T04:21:41.376Z,60.60
2022-10-11T04:24:08.080Z,60.57
2022-10-11T04:26:34.584Z,60.72
2022-10-11T04:29:01.093Z,60.77
2022-10-11T04:31:27.637Z,60.82
2022-10-11T04:33:54.171Z,60.95
2022-10-11T04:36:20.648Z,60.98
2022-10-11T04:38:47.485Z,60.96
2022-10-11T04:41:14.745Z,61.06
2022-10-11T04:43:41.633Z,61.15
2022-10-11T04:46:09.554Z,60.81
2022-10-11T04:48:36.501Z,60.90
2022-10-11T04:51:03.030Z,60.87
2022-10-11T04:53:29.983Z,61.11
2022-10-11T04:56:01.204Z,61.05
2022-10-11T04:58:29.265Z,61.21
2022-10-11T05:00:56.015Z,61.24
2022-10-11T05:03:22.980Z,61.02
2022-10-11T05:05:49.824Z,61.07
2022-10-11T05:08:16.553Z,61.13
2022-10-11T05:10:43.086Z,61.17
2022-10-11T05:13:09.608Z,61.46
2022-10-11T05:15:36.326Z,61.43
2022-10-11T05:18:02.948Z,61.21
2022-10-11T05:20:29.495Z,61.54
2022-10-11T05:22:56.042Z,61.55
2022-10-11T05:25:22.564Z,61.40
2022-10-11T05:27:49.128Z,61.58
2022-10-11T05:30:15.718Z,61.82
2022-10-11T05:32:42.277Z,61.39
2022-10-11T05:35:09.157Z,61.69
2022-10-11T05:37:35.705Z,61.77
2022-10-11T05:40:02.278Z,61.52
2022-10-11T05:42:28.798Z,61.82
2022-10-11T05:44:55.301Z,61.43
2022-10-11T05:47:21.821Z,61.87
2022-10-11T05:49:48.337Z,61.58
2022-10-11T05:52:19.748Z,62.04
2022-10-11T05:54:46.567Z,61.85
2022-10-11T05:57:13.120Z,61.90
2022-10-11T05:59:39.649Z,61.54
2022-10-11T06:02:06.553Z,61.72
2022-10-11T06:04:37.072Z,61.57
2022-10-11T06:07:03.912Z,61.77
2022-10-11T06:09:31.085Z,61.86
2022-10-11T06:11:57.948Z,61.68
2022-10-11T06:14:39.405Z,61.47
2022-10-11T06:17:05.899Z,61.47
2022-10-11T06:19:32.441Z,61.22
2022-10-11T06:21:58.940Z,61.54
2022-10-11T06:24:25.428Z,61.32
2022-10-11T06:26:52.058Z,61.67
2022-10-11T06:29:18.560Z,61.37
2022-10-11T06:31:45.069Z,61.25
2022-10-11T06:34:11.566Z,61.58
2022-10-11T06:36:38.077Z,61.44
2022-10-11T06:39:04.642Z,61.19
2022-10-11T06:41:31.206Z,61.34
2022-10-11T06:43:58.136Z,61.35
2022-10-11T06:46:26.905Z,61.39
2022-10-11T06:48:54.390Z,61.20
2022-10-11T06:51:22.393Z,61.15
2022-10-11T06:53:53.476Z,61.18
2022-10-11T06:56:20.036Z,61.46
2022-10-11T06:58:46.738Z,61.40
2022-10-11T07:01:18.590Z,61.10
2022-10-11T07:03:45.910Z,61.09
2022-10-11T07:06:17.836Z,60.81
2022-10-11T07:08:44.501Z,60.78
2022-10-11T07:11:13.544Z,60.93
2022-10-11T07:13:40.951Z,60.84
2022-10-11T07:16:12.644Z,60.78
2022-10-11T07:18:39.356Z,60.79
2022-10-11T07:21:08.585Z,60.58
2022-10-11T07:23:35.490Z,60.68
2022-10-11T07:26:02.318Z,60.75
2022-10-11T07:28:30.608Z,60.71
2022-10-11T07:30:58.284Z,60.49
2022-10-11T07:33:25.268Z,60.42
2022-10-11T07:35:51.850Z,60.32
2022-10-11T07:38:18.392Z,60.25
2022-10-11T07:40:46.473Z,60.16
2022-10-11T07:43:13.467Z,60.39
2022-10-11T07:45:41.236Z,60.14
2022-10-11T07:48:07.917Z,60.27
2022-10-11T07:50:34.781Z,60.10
2022-10-11T07:53:01.458Z,60.14
2022-10-11T07:55:30.327Z,59.95
2022-10-11T07:57:57.559Z,59.74
2022-10-11T08:00:24.337Z,59.65
2022-10-11T08:02:50.877Z,59.62
2022-10-11T08:05:17.622Z,59.61
2022-10-11T08:07:44.296Z,59.34
2022-10-11T08:10:10.946Z,59.45
2022-10-11T08:12:37.508Z,59.17
2022-10-11T08:15:04.275Z,59.13
2022-10-11T08:17:30.847Z,59.24
2022-10-11T08:19:58.200Z,58.99
2022-10-11T08:22:24.773Z,59.03
2022-10-11T08:24:51.407Z,59.01
2022-10-11T08:27:17.972Z,58.94
2022-10-11T08:29:44.503Z,58.97
2022-10-11T08:32:12.240Z,59.08
2022-10-11T08:34:38.814Z,58.90
2022-10-11T08:37:05.439Z,58.68
2022-10-11T08:39:32.165Z,58.56
2022-10-11T08:42:07.935Z,58.30
2022-10-11T08:45:09.366Z,58.10
2022-10-11T08:47:41.455Z,58.13
2022-10-11T08:50:17.554Z,57.95
2022-10-11T08:53:04.314Z,57.84
2022-10-11T08:55:34.789Z,57.73
2022-10-11T08:58:01.319Z,57.71
2022-10-11T09:00:31.680Z,57.49
2022-10-11T09:03:14.196Z,57.34
2022-10-11T09:05:59.543Z,57.32
2022-10-11T09:08:50.349Z,57.03
2022-10-11T09:11:31.592Z,56.93
2022-10-11T09:14:12.202Z,57.13
2022-10-11T09:17:01.413Z,57.07
2022-10-11T09:19:44.641Z,57.08
2022-10-11T09:22:25.796Z,57.03
2022-10-11T09:24:58.864Z,56.83
2022-10-11T09:27:57.221Z,56.92
2022-10-11T09:30:20.152Z,56.98
2022-10-11T09:32:51.998Z,56.95
2022-10-11T09:35:20.937Z,56.84
2022-10-11T09:38:23.492Z,56.82
2022-10-11T09:41:17.413Z,57.02
2022-10-11T09:43:51.420Z,56.73
2022-10-11T09:46:26.907Z,56.82
2022-10-11T09:48:54.606Z,56.95
2022-10-11T09:51:22.700Z,56.83
2022-10-11T09:53:58.463Z,56.49
2022-10-11T09:56:27.058Z,56.49
2022-10-11T09:59:29.068Z,56.46
2022-10-11T10:02:14.299Z,56.67
2022-10-11T10:04:58.013Z,56.44
2022-10-11T10:07:24.964Z,56.42
2022-10-11T10:09:52.889Z,56.54
2022-10-11T10:12:26.748Z,56.33
2022-10-11T10:15:18.194Z,56.29
2022-10-11T10:17:52.389Z,56.40
2022-10-11T10:20:25.420Z,56.33
2022-10-11T10:22:52.058Z,56.16
2022-10-11T10:25:37.456Z,56.17
2022-10-11T10:28:25.864Z,56.00
2022-10-11T10:30:59.562Z,55.99
2022-10-11T10:33:31.298Z,55.84
2022-10-11T10:36:06.081Z,56.00
2022-10-11T10:38:42.109Z,55.96
2022-10-11T10:41:13.382Z,55.78
2022-10-11T10:43:42.205Z,55.93
2022-10-11T10:46:11.526Z,55.59
2022-10-11T10:51:46.447Z,55.83
2022-10-11T10:54:28.107Z,55.88
2022-10-11T10:56:58.811Z,55.94
2022-10-11T10:59:52.839Z,56.04
2022-10-11T11:02:41.525Z,55.89
2022-10-11T11:05:21.147Z,55.85
2022-10-11T11:07:57.173Z,56.00
2022-10-11T11:10:30.919Z,56.07
2022-10-11T11:13:35.177Z,55.97
2022-10-11T11:16:19.022Z,56.24
2022-10-11T11:18:54.250Z,56.17
2022-10-11T11:21:30.056Z,56.00
2022-10-11T11:24:04.332Z,55.90
2022-10-11T11:26:53.022Z,55.70
2022-10-11T11:29:58.092Z,55.78
2022-10-11T11:32:30.947Z,55.78
2022-10-11T11:35:03.248Z,55.75
2022-10-11T11:37:36.727Z,55.86
2022-10-11T11:40:13.008Z,55.80
2022-10-11T11:42:42.409Z,55.66
2022-10-11T11:45:35.094Z,55.91
2022-10-11T11:48:14.257Z,55.83
2022-10-11T11:50:44.978Z,55.59
2022-10-11T11:53:16.959Z,55.61
2022-10-11T11:55:58.564Z,55.59
2022-10-11T11:58:24.989Z,55.98
2022-10-11T12:01:32.797Z,56.04
2022-10-11T12:04:04.556Z,55.54
2022-10-11T12:06:40.314Z,55.77
2022-10-11T12:09:17.432Z,55.78
2022-10-11T12:12:01.734Z,55.83
2022-10-11T12:14:34.563Z,55.83
2022-10-11T12:17:20.416Z,55.78
2022-10-11T12:20:04.930Z,55.86
2022-10-11T12:22:31.454Z,55.99
2022-10-11T12:25:22.101Z,56.12
2022-10-11T12:27:51.630Z,56.00
2022-10-11T12:30:53.319Z,55.91
2022-10-11T12:33:26.138Z,55.97
2022-10-11T12:35:55.850Z,55.87
2022-10-11T12:38:28.825Z,56.04
2022-10-11T12:41:08.778Z,55.94
2022-10-11T12:43:47.580Z,56.06
2022-10-11T12:46:29.544Z,55.94
2022-10-11T12:49:18.967Z,55.98
2022-10-11T12:52:03.154Z,55.86
2022-10-11T12:54:44.946Z,55.96
2022-10-11T12:57:26.724Z,56.02
2022-10-11T12:59:53.365Z,55.98
2022-10-11T13:02:42.690Z,55.84
2022-10-11T13:05:32.217Z,56.04
2022-10-11T13:08:03.350Z,56.04
2022-10-11T13:10:36.673Z,56.09
2022-10-11T13:13:06.936Z,56.10
2022-10-11T13:15:34.487Z,56.45
2022-10-11T13:18:01.531Z,56.55
2022-10-11T13:20:31.528Z,56.62
2022-10-11T13:22:59.213Z,56.51
2022-10-11T13:25:31.381Z,56.55
2022-10-11T13:28:01.368Z,56.56
2022-10-11T13:30:34.371Z,56.79
2022-10-11T13:33:01.972Z,56.65
2022-10-11T13:35:38.652Z,56.82
2022-10-11T13:38:09.007Z,56.73
2022-10-11T13:40:36.201Z,56.92
2022-10-11T13:43:05.615Z,56.99
2022-10-11T13:45:34.839Z,56.75
2022-10-11T13:48:01.428Z,56.81
2022-10-11T13:50:32.175Z,57.04
2022-10-11T13:53:22.647Z,56.90
2022-10-11T13:55:54.934Z,57.13
2022-10-11T13:58:40.528Z,57.11
2022-10-11T14:01:17.894Z,57.22
2022-10-11T14:03:47.321Z,57.14
2022-10-11T14:06:13.857Z,57.11
2022-10-11T14:08:46.116Z,57.15
2022-10-11T14:11:14.372Z,57.01
2022-10-11T14:13:45.737Z,57.16
2022-10-11T14:16:18.184Z,57.14
2022-10-11T14:18:46.261Z,57.38
2022-10-11T14:21:32.535Z,57.47
2022-10-11T14:23:59.948Z,57.33
2022-10-11T14:26:27.929Z,57.52
2022-10-11T14:28:58.890Z,57.34
2022-10-11T14:31:26.113Z,57.26
2022-10-11T14:33:53.783Z,57.76
2022-10-11T14:36:22.817Z,57.55
2022-10-11T14:38:53.396Z,57.32
2022-10-11T14:41:20.213Z,57.42
2022-10-11T14:43:46.816Z,57.43
2022-10-11T14:46:24.871Z,57.52
2022-10-11T14:48:55.956Z,57.72
2022-10-11T14:51:27.423Z,57.56
2022-10-11T14:53:54.152Z,57.79
2022-10-11T14:56:21.838Z,57.84
2022-10-11T14:58:48.896Z,57.72
2022-10-11T15:01:16.535Z,57.74
2022-10-11T15:03:43.569Z,58.12
2022-10-11T15:06:39.948Z,57.80
2022-10-11T15:09:07.678Z,57.76
2022-10-11T15:11:36.207Z,58.03
2022-10-11T15:14:03.886Z,58.18
2022-10-11T15:16:30.575Z,58.03
2022-10-11T15:18:58.521Z,57.84
2022-10-11T15:21:26.939Z,58.28
2022-10-11T15:23:54.583Z,58.17
2022-10-11T15:26:24.332Z,58.12
2022-10-11T15:28:53.758Z,58.20
2022-10-11T15:31:20.637Z,58.13
2022-10-11T15:33:47.481Z,58.24
2022-10-11T15:36:20.195Z,58.17
2022-10-11T15:38:47.834Z,58.29
2022-10-11T15:41:15.817Z,58.24
2022-10-11T15:43:43.870Z,58.25
2022-10-11T15:46:17.489Z,58.21
2022-10-11T15:48:44.809Z,58.14
2022-10-11T15:51:11.356Z,58.41
2022-10-11T15:53:38.463Z,58.46
2022-10-11T15:56:10.206Z,58.45
2022-10-11T15:58:40.325Z,58.38
2022-10-11T16:01:18.120Z,58.52
2022-10-11T16:03:46.453Z,58.57
2022-10-11T16:06:13.563Z,58.70
2022-10-11T16:08:40.716Z,58.74
2022-10-11T16:11:08.574Z,58.82
2022-10-11T16:13:35.256Z,58.77
2022-10-11T16:16:07.071Z,58.82
2022-10-11T16:18:35.889Z,58.97
2022-10-11T16:21:07.538Z,58.95
2022-10-11T16:23:36.815Z,58.96
2022-10-11T16:26:06.820Z,59.13
2022-10-11T16:28:33.690Z,59.10
2022-10-11T16:31:00.685Z,59.06
2022-10-11T16:33:27.509Z,59.20
2022-10-11T16:35:54.028Z,59.29
2022-10-11T16:38:20.626Z,59.32
2022-10-11T16:40:47.262Z,59.43
2022-10-11T16:43:13.768Z,59.36
2022-10-11T16:45:40.297Z,59.43
2022-10-11T16:48:06.821Z,59.51
2022-10-11T16:50:39.126Z,59.60
2022-10-11T16:53:06.207Z,59.80
2022-10-11T16:55:34.302Z,59.75
2022-10-11T16:58:00.849Z,59.79
2022-10-11T17:00:27.675Z,59.85
2022-10-11T17:02:54.336Z,59.81
2022-10-11T17:05:21.161Z,59.97
2022-10-11T17:07:47.684Z,59.93
2022-10-11T17:10:14.163Z,60.01
2022-10-11T17:12:40.733Z,60.06
2022-10-11T17:15:07.903Z,60.11
2022-10-11T17:17:34.403Z,59.85
2022-10-11T17:20:02.393Z,59.88
2022-10-11T17:22:29.041Z,59.86
2022-10-11T17:24:55.562Z,59.91
2022-10-11T17:27:24.148Z,59.84
2022-10-11T17:29:50.698Z,59.78
2022-10-11T17:32:17.456Z,59.85
2022-10-11T17:34:44.029Z,59.79
2022-10-11T17:37:12.581Z,59.85
2022-10-11T17:39:40.333Z,59.98
2022-10-11T17:42:07.602Z,60.01
2022-10-11T17:44:35.766Z,59.77
2022-10-11T17:47:02.847Z,59.83
2022-10-11T17:49:29.379Z,59.78
2022-10-11T17:51:56.656Z,59.94
2022-10-11T17:54:23.228Z,59.94
2022-10-11T17:56:50.349Z,60.02
2022-10-11T17:59:21.008Z,59.91
2022-10-11T18:01:48.469Z,60.14
2022-10-11T18:04:16.729Z,60.16
2022-10-11T18:06:45.290Z,59.96
2022-10-11T18:09:13.452Z,60.28
2022-10-11T18:11:39.970Z,60.22
2022-10-11T18:14:07.024Z,60.29
2022-10-11T18:16:34.479Z,60.38
2022-10-11T18:19:02.813Z,60.40
2022-10-11T18:21:34.335Z,60.32
2022-10-11T18:24:01.644Z,60.51
2022-10-11T18:26:30.778Z,60.38
2022-10-11T18:28:57.737Z,60.33
2022-10-11T18:31:26.708Z,60.26
2022-10-11T18:33:53.970Z,60.47
2022-10-11T18:36:23.040Z,60.75
2022-10-11T18:38:54.066Z,60.69
2022-10-11T18:41:21.790Z,60.76
2022-10-11T18:43:50.766Z,60.61
2022-10-11T18:46:17.858Z,60.74
2022-10-11T18:48:46.009Z,60.85
2022-10-11T18:51:15.381Z,60.74
2022-10-11T18:53:42.511Z,60.88
2022-10-11T18:56:10.465Z,60.69
2022-10-11T18:58:38.263Z,60.89
2022-10-11T19:01:10.257Z,60.99
2022-10-11T19:03:36.992Z,61.13
2022-10-11T19:06:11.399Z,61.01
2022-10-11T19:08:38.041Z,60.89
2022-10-11T19:11:09.080Z,61.23
2022-10-11T19:13:36.084Z,61.04
2022-10-11T19:16:08.574Z,61.23
2022-10-11T19:18:38.366Z,61.36
2022-10-11T19:21:10.283Z,61.30
2022-10-11T19:23:45.238Z,61.49
2022-10-11T19:26:15.452Z,61.19
2022-10-11T19:28:42.425Z,61.12
2022-10-11T19:31:10.645Z,61.07
2022-10-11T19:33:37.539Z,61.35
2022-10-11T19:36:05.747Z,61.34
2022-10-11T19:38:35.990Z,61.28
2022-10-11T19:41:04.703Z,61.40
2022-10-11T19:43:32.056Z,61.64
2022-10-11T19:46:06.302Z,61.35
2022-10-11T19:48:35.339Z,61.53
2022-10-11T19:51:06.972Z,61.33
2022-10-11T19:53:33.628Z,61.77
2022-10-11T19:56:05.873Z,61.72
2022-10-11T19:58:32.569Z,61.35
2022-10-11T20:01:02.908Z,61.74
2022-10-11T20:03:30.162Z,61.52
2022-10-11T20:06:02.861Z,61.46
2022-10-11T20:08:31.350Z,61.50
2022-10-11T20:11:03.633Z,61.61
2022-10-11T20:13:34.704Z,61.82
2022-10-11T20:16:04.258Z,61.95
2022-10-11T20:18:31.391Z,61.80
2022-10-11T20:21:00.719Z,61.95
2022-10-11T20:23:28.196Z,61.91
2022-10-11T20:26:03.290Z,62.13
2022-10-11T20:28:31.683Z,61.91
2022-10-11T20:30:59.516Z,62.32
2022-10-11T20:33:26.702Z,62.24
2022-10-11T20:36:00.887Z,62.26
2022-10-11T20:38:28.228Z,62.17
2022-10-11T20:40:54.986Z,62.19
2022-10-11T20:43:21.958Z,62.26
2022-10-11T20:45:59.873Z,62.17
2022-10-11T20:48:26.748Z,62.29
2022-10-11T20:50:54.356Z,62.41
2022-10-11T20:53:21.175Z,62.09
2022-10-11T20:55:47.759Z,62.26
2022-10-11T20:58:16.351Z,62.33
2022-10-11T21:00:43.404Z,62.21
2022-10-11T21:03:10.461Z,62.05
2022-10-11T21:05:37.062Z,62.39
2022-10-11T21:08:03.699Z,62.38
2022-10-11T21:10:30.966Z,62.29
2022-10-11T21:12:58.162Z,62.26
2022-10-11T21:15:24.985Z,62.22
2022-10-11T21:17:51.747Z,62.42
2022-10-11T21:20:18.728Z,62.30
2022-10-11T21:22:45.348Z,62.32
2022-10-11T21:25:11.857Z,62.23
2022-10-11T21:27:38.374Z,62.36
2022-10-11T21:30:05.191Z,62.53
2022-10-11T21:32:32.126Z,62.56
2022-10-11T21:34:58.779Z,62.55
2022-10-11T21:37:25.430Z,62.48
2022-10-11T21:39:51.953Z,62.28
2022-10-11T21:42:18.537Z,62.42
2022-10-11T21:44:45.127Z,62.27
2022-10-11T21:47:12.466Z,62.61
2022-10-11T21:49:39.014Z,62.42
2022-10-11T21:52:05.673Z,62.63
2022-10-11T21:54:32.179Z,62.68
2022-10-11T21:56:58.729Z,62.50
2022-10-11T21:59:25.269Z,62.59
2022-10-11T22:01:51.868Z,62.81
2022-10-11T22:04:19.031Z,62.69
2022-10-11T22:06:45.783Z,62.61
2022-10-11T22:09:12.314Z,62.59
2022-10-11T22:11:38.843Z,62.82
2022-10-11T22:14:07.094Z,62.52
2022-10-11T22:16:34.329Z,62.74
2022-10-11T22:19:00.856Z,62.53
2022-10-11T22:21:29.509Z,62.89
2022-10-11T22:23:56.337Z,62.63
2022-10-11T22:26:30.975Z,62.63
2022-10-11T22:28:58.534Z,62.91
2022-10-11T22:31:25.112Z,62.79
2022-10-11T22:33:56.002Z,62.62
2022-10-11T22:36:24.361Z,62.75
2022-10-11T22:38:51.550Z,62.66
2022-10-11T22:41:18.140Z,62.88
2022-10-11T22:43:44.659Z,62.84
2022-10-11T22:46:11.325Z,62.64
2022-10-11T22:48:37.888Z,62.91
2022-10-11T22:51:04.541Z,62.74
2022-10-11T22:53:31.287Z,62.73
2022-10-11T22:55:58.460Z,62.88
2022-10-11T22:58:25.096Z,63.05
2022-10-11T23:00:52.160Z,62.99
2022-10-11T23:03:19.495Z,62.69
2022-10-11T23:05:56.571Z,63.00
2022-10-11T23:08:23.631Z,62.85
2022-10-11T23:10:50.213Z,62.74
2022-10-11T23:13:16.773Z,62.71
2022-10-11T23:15:43.384Z,62.70
2022-10-11T23:18:10.154Z,62.79
2022-10-11T23:20:38.710Z,62.89
2022-10-11T23:23:06.098Z,62.96
2022-10-11T23:25:34.273Z,62.77
2022-10-11T23:28:01.487Z,62.66
2022-10-11T23:30:29.097Z,62.82
2022-10-11T23:32:55.684Z,62.77
2022-10-11T23:35:22.204Z,62.58
2022-10-11T23:37:48.739Z,62.39
2022-10-11T23:40:15.485Z,62.58
2022-10-11T23:42:42.006Z,62.54
2022-10-11T23:45:09.101Z,62.81
2022-10-11T23:47:35.738Z,62.85
2022-10-11T23:50:03.854Z,62.72
2022-10-11T23:52:30.371Z,62.69
2022-10-11T23:54:56.876Z,62.89
2022-10-11T23:57:23.429Z,62.79
2022-10-11T23:59:49.957Z,62.66
